createdAt,value
2022-10-30T00:13:43.942Z,27.63
2022-10-30T00:28:52.198Z,13.13
2022-10-30T00:43:56.563Z,16.87
2022-10-30T00:59:06.249Z,17.23
2022-10-30T01:14:13.114Z,40.50
2022-10-30T01:29:32.145Z,20.67
2022-10-30T01:44:36.936Z,21.63
2022-10-30T01:59:47.098Z,13.47
2022-10-30T02:14:55.654Z,23.10
2022-10-30T02:30:00.745Z,14.40
2022-10-30T02:45:07.715Z,14.23
2022-10-30T03:00:13.583Z,13.20
2022-10-30T03:15:18.201Z,11.17
2022-10-30T03:30:22.540Z,21.63
2022-10-30T03:45:27.042Z,23.50
2022-10-30T04:00:31.756Z,12.40
2022-10-30T04:15:38.071Z,14.07
2022-10-30T04:30:42.863Z,13.20
2022-10-30T04:45:47.716Z,13.17
2022-10-30T05:00:52.082Z,15.70
2022-10-30T05:15:57.301Z,16.23
2022-10-30T05:31:01.982Z,11.97
2022-10-30T05:46:32.280Z,21.23
2022-10-30T06:01:47.220Z,11.30
2022-10-30T06:16:51.775Z,23.33
2022-10-30T06:32:06.907Z,11.80
2022-10-30T06:47:12.074Z,15.80
2022-10-30T07:02:17.312Z,26.03
2022-10-30T07:17:25.945Z,15.30
2022-10-30T07:32:35.971Z,9.77
2022-10-30T07:48:08.834Z,9.10
2022-10-30T08:03:21.914Z,19.97
2022-10-30T08:18:52.740Z,9.40
2022-10-30T08:34:01.278Z,8.67
2022-10-30T08:49:44.145Z,18.70
2022-10-30T09:04:49.875Z,25.50
2022-10-30T09:20:14.315Z,13.83
2022-10-30T09:35:19.301Z,12.43
2022-10-30T09:50:29.395Z,15.03
2022-10-30T10:05:45.611Z,11.20
2022-10-30T10:21:16.929Z,16.33
2022-10-30T10:36:31.935Z,17.67
2022-10-30T10:51:40.121Z,9.23
2022-10-30T11:06:50.181Z,18.53
2022-10-30T11:21:56.351Z,9.73
2022-10-30T11:37:00.851Z,18.57
2022-10-30T11:52:06.972Z,18.90
2022-10-30T12:07:21.456Z,14.53
2022-10-30T12:22:34.659Z,6.30
2022-10-30T12:37:43.835Z,11.00
2022-10-30T12:52:55.653Z,8.90
2022-10-30T13:08:07.889Z,3.53
2022-10-30T13:23:16.633Z,4.17
2022-10-30T13:38:39.124Z,5.43
2022-10-30T13:53:46.345Z,2.93
2022-10-30T14:08:58.829Z,8.10
2022-10-30T14:24:17.858Z,2.90
2022-10-30T14:39:31.851Z,11.47
2022-10-30T14:54:45.560Z,1.97
2022-10-30T15:10:03.660Z,2.10
2022-10-30T15:25:17.503Z,3.73
2022-10-30T15:55:30.111Z,5.57
2022-10-30T16:10:36.861Z,2.90
2022-10-30T16:25:47.032Z,1.93
2022-10-30T16:40:52.789Z,2.10
2022-10-30T16:55:59.191Z,5.60
2022-10-30T17:11:05.471Z,2.30
2022-10-30T17:26:14.306Z,3.13
2022-10-30T17:41:18.716Z,1.70
2022-10-30T17:56:25.938Z,5.17
2022-10-30T18:11:30.317Z,6.37
2022-10-30T18:26:40.042Z,2.73
2022-10-30T18:41:46.403Z,2.87
2022-10-30T18:56:50.793Z,2.67
2022-10-30T19:11:55.155Z,8.90
2022-10-30T19:26:59.631Z,5.37
2022-10-30T19:42:04.101Z,2.57
2022-10-30T19:57:13.145Z,2.70
2022-10-30T20:12:17.517Z,3.93
2022-10-30T20:27:21.893Z,3.50
2022-10-30T20:42:26.333Z,2.73
2022-10-30T20:57:30.754Z,3.67
2022-10-30T21:12:35.186Z,2.97
2022-10-30T21:27:39.707Z,2.77
2022-10-30T21:42:44.188Z,2.23
2022-10-30T21:57:48.568Z,3.07
2022-10-30T22:12:52.942Z,3.83
2022-10-30T22:27:57.505Z,11.83
2022-10-30T22:43:02.525Z,2.20
2022-10-30T22:58:07.027Z,3.10
2022-10-30T23:13:11.461Z,3.97
2022-10-30T23:43:21.511Z,4.37
2022-10-30T23:58:26.068Z,3.50
